sensor_id;sensor_type;location;lat;lon;timestamp;pressure;altitude;pressure_sealevel;temperature
76895;BMP280;65855;42.030;13.078;2023-01-28T00:00:47;92917.63;;;1.66
76895;BMP280;65855;42.030;13.078;2023-01-28T00:03:12;92914.91;;;1.62
76895;BMP280;65855;42.030;13.078;2023-01-28T00:05:40;92920.69;;;1.77
76895;BMP280;65855;42.030;13.078;2023-01-28T00:08:05;92913.84;;;1.53
76895;BMP280;65855;42.030;13.078;2023-01-28T00:10:31;92916.78;;;1.45
76895;BMP280;65855;42.030;13.078;2023-01-28T00:12:56;92918.81;;;1.53
76895;BMP280;65855;42.030;13.078;2023-01-28T00:15:21;92910.38;;;1.54
76895;BMP280;65855;42.030;13.078;2023-01-28T00:17:47;92914.91;;;1.62
76895;BMP280;65855;42.030;13.078;2023-01-28T00:20:12;92921.66;;;1.71
76895;BMP280;65855;42.030;13.078;2023-01-28T00:22:38;92919.44;;;1.75
76895;BMP280;65855;42.030;13.078;2023-01-28T00:25:03;92918.19;;;1.72
76895;BMP280;65855;42.030;13.078;2023-01-28T00:27:29;92916.97;;;1.75
76895;BMP280;65855;42.030;13.078;2023-01-28T00:29:55;92916.47;;;1.78
76895;BMP280;65855;42.030;13.078;2023-01-28T00:32:20;92923.97;;;1.47
76895;BMP280;65855;42.030;13.078;2023-01-28T00:34:45;92922.03;;;1.54
76895;BMP280;65855;42.030;13.078;2023-01-28T00:37:11;92924.31;;;1.60
76895;BMP280;65855;42.030;13.078;2023-01-28T00:39:36;92923.88;;;1.68
76895;BMP280;65855;42.030;13.078;2023-01-28T00:42:02;92928.59;;;1.69
76895;BMP280;65855;42.030;13.078;2023-01-28T00:44:27;92922.41;;;1.72
76895;BMP280;65855;42.030;13.078;2023-01-28T00:46:53;92927.41;;;1.77
76895;BMP280;65855;42.030;13.078;2023-01-28T00:49:18;92927.28;;;1.57
76895;BMP280;65855;42.030;13.078;2023-01-28T00:51:44;92922.56;;;1.56
76895;BMP280;65855;42.030;13.078;2023-01-28T00:54:11;92924.81;;;1.57
76895;BMP280;65855;42.030;13.078;2023-01-28T00:56:37;92931.75;;;1.55
76895;BMP280;65855;42.030;13.078;2023-01-28T00:59:03;92928.78;;;1.58
76895;BMP280;65855;42.030;13.078;2023-01-28T01:01:28;92931.25;;;1.58
76895;BMP280;65855;42.030;13.078;2023-01-28T01:03:54;92933.69;;;1.53
76895;BMP280;65855;42.030;13.078;2023-01-28T01:06:31;92931.28;;;1.63
76895;BMP280;65855;42.030;13.078;2023-01-28T01:08:57;92932.53;;;1.66
76895;BMP280;65855;42.030;13.078;2023-01-28T01:11:22;92931.84;;;1.70
76895;BMP280;65855;42.030;13.078;2023-01-28T01:13:51;92933.81;;;1.68
76895;BMP280;65855;42.030;13.078;2023-01-28T01:16:16;92941.72;;;1.65
76895;BMP280;65855;42.030;13.078;2023-01-28T01:18:42;92947.44;;;1.66
76895;BMP280;65855;42.030;13.078;2023-01-28T01:21:09;92936.75;;;1.65
76895;BMP280;65855;42.030;13.078;2023-01-28T01:23:36;92944.03;;;1.36
76895;BMP280;65855;42.030;13.078;2023-01-28T01:26:03;92945.47;;;1.32
76895;BMP280;65855;42.030;13.078;2023-01-28T01:28:28;92943.72;;;1.32
76895;BMP280;65855;42.030;13.078;2023-01-28T01:31:05;92948.44;;;1.29
76895;BMP280;65855;42.030;13.078;2023-01-28T01:33:31;92956.16;;;1.32
76895;BMP280;65855;42.030;13.078;2023-01-28T01:35:58;92951.97;;;1.38
76895;BMP280;65855;42.030;13.078;2023-01-28T01:38:24;92956.97;;;1.43
76895;BMP280;65855;42.030;13.078;2023-01-28T01:40:50;92957.03;;;1.52
76895;BMP280;65855;42.030;13.078;2023-01-28T01:43:21;92958.53;;;1.53
76895;BMP280;65855;42.030;13.078;2023-01-28T01:45:55;92958.00;;;1.46
76895;BMP280;65855;42.030;13.078;2023-01-28T01:48:30;92962.16;;;1.36
76895;BMP280;65855;42.030;13.078;2023-01-28T01:51:06;92950.97;;;1.39
76895;BMP280;65855;42.030;13.078;2023-01-28T01:53:38;92963.50;;;1.48
76895;BMP280;65855;42.030;13.078;2023-01-28T01:56:07;92958.06;;;1.56
76895;BMP280;65855;42.030;13.078;2023-01-28T01:58:36;92957.03;;;1.52
76895;BMP280;65855;42.030;13.078;2023-01-28T02:01:03;92963.91;;;1.41
76895;BMP280;65855;42.030;13.078;2023-01-28T02:06:13;92964.28;;;1.28
76895;BMP280;65855;42.030;13.078;2023-01-28T02:08:38;92965.81;;;1.29
76895;BMP280;65855;42.030;13.078;2023-01-28T02:11:05;92957.19;;;1.36
76895;BMP280;65855;42.030;13.078;2023-01-28T02:13:39;92964.78;;;1.25
76895;BMP280;65855;42.030;13.078;2023-01-28T02:16:06;92957.47;;;1.14
76895;BMP280;65855;42.030;13.078;2023-01-28T02:18:33;92958.72;;;1.11
76895;BMP280;65855;42.030;13.078;2023-01-28T02:29:07;92947.00;;;0.81
76895;BMP280;65855;42.030;13.078;2023-01-28T02:31:50;92943.47;;;0.77
76895;BMP280;65855;42.030;13.078;2023-01-28T02:34:45;92947.50;;;0.78
76895;BMP280;65855;42.030;13.078;2023-01-28T02:40:13;92950.00;;;0.83
76895;BMP280;65855;42.030;13.078;2023-01-28T02:42:40;92942.28;;;0.79
76895;BMP280;65855;42.030;13.078;2023-01-28T02:45:15;92939.44;;;0.66
76895;BMP280;65855;42.030;13.078;2023-01-28T02:47:42;92948.78;;;0.59
76895;BMP280;65855;42.030;13.078;2023-01-28T02:50:26;92943.53;;;0.56
76895;BMP280;65855;42.030;13.078;2023-01-28T02:56:06;92949.69;;;0.74
76895;BMP280;65855;42.030;13.078;2023-01-28T02:58:43;92954.19;;;0.56
76895;BMP280;65855;42.030;13.078;2023-01-28T03:01:38;92956.44;;;0.58
76895;BMP280;65855;42.030;13.078;2023-01-28T03:04:11;92952.72;;;0.34
76895;BMP280;65855;42.030;13.078;2023-01-28T03:06:49;92964.53;;;0.27
76895;BMP280;65855;42.030;13.078;2023-01-28T03:09:17;92952.38;;;0.26
76895;BMP280;65855;42.030;13.078;2023-01-28T03:12:03;92954.50;;;0.39
76895;BMP280;65855;42.030;13.078;2023-01-28T03:14:51;92957.63;;;0.29
76895;BMP280;65855;42.030;13.078;2023-01-28T03:17:52;92959.44;;;0.18
76895;BMP280;65855;42.030;13.078;2023-01-28T03:20:44;92958.84;;;0.27
76895;BMP280;65855;42.030;13.078;2023-01-28T03:24:08;92964.72;;;0.21
76895;BMP280;65855;42.030;13.078;2023-01-28T03:29:39;92948.09;;;0.43
76895;BMP280;65855;42.030;13.078;2023-01-28T03:32:25;92953.63;;;0.49
76895;BMP280;65855;42.030;13.078;2023-01-28T03:35:13;92944.91;;;0.68
76895;BMP280;65855;42.030;13.078;2023-01-28T03:37:59;92944.91;;;0.68
76895;BMP280;65855;42.030;13.078;2023-01-28T03:40:25;92943.28;;;0.57
76895;BMP280;65855;42.030;13.078;2023-01-28T03:42:51;92944.44;;;0.50
76895;BMP280;65855;42.030;13.078;2023-01-28T03:45:18;92952.13;;;0.48
76895;BMP280;65855;42.030;13.078;2023-01-28T03:47:45;92949.59;;;0.44
76895;BMP280;65855;42.030;13.078;2023-01-28T03:50:11;92944.94;;;0.47
76895;BMP280;65855;42.030;13.078;2023-01-28T03:52:36;92950.16;;;0.50
76895;BMP280;65855;42.030;13.078;2023-01-28T03:55:02;92946.31;;;0.38
76895;BMP280;65855;42.030;13.078;2023-01-28T03:57:37;92963.31;;;0.30
76895;BMP280;65855;42.030;13.078;2023-01-28T04:00:03;92959.59;;;0.27
76895;BMP280;65855;42.030;13.078;2023-01-28T04:02:28;92960.91;;;0.35
76895;BMP280;65855;42.030;13.078;2023-01-28T04:04:53;92951.25;;;0.38
76895;BMP280;65855;42.030;13.078;2023-01-28T04:07:19;92953.34;;;0.46
76895;BMP280;65855;42.030;13.078;2023-01-28T04:09:45;92954.53;;;0.44
76895;BMP280;65855;42.030;13.078;2023-01-28T04:12:10;92954.50;;;0.39
76895;BMP280;65855;42.030;13.078;2023-01-28T04:14:36;92951.44;;;0.32
76895;BMP280;65855;42.030;13.078;2023-01-28T04:17:03;92951.22;;;0.33
76895;BMP280;65855;42.030;13.078;2023-01-28T04:19:29;92961.13;;;0.33
76895;BMP280;65855;42.030;13.078;2023-01-28T04:22:05;92961.94;;;0.39
76895;BMP280;65855;42.030;13.078;2023-01-28T04:24:31;92957.16;;;0.53
76895;BMP280;65855;42.030;13.078;2023-01-28T04:26:57;92961.22;;;0.64
76895;BMP280;65855;42.030;13.078;2023-01-28T04:29:22;92960.94;;;0.61
76895;BMP280;65855;42.030;13.078;2023-01-28T04:31:48;92961.56;;;0.51
76895;BMP280;65855;42.030;13.078;2023-01-28T04:34:13;92967.34;;;0.57
76895;BMP280;65855;42.030;13.078;2023-01-28T04:36:38;92974.03;;;0.56
76895;BMP280;65855;42.030;13.078;2023-01-28T04:39:04;92975.16;;;0.70
76895;BMP280;65855;42.030;13.078;2023-01-28T04:41:29;92978.13;;;0.67
76895;BMP280;65855;42.030;13.078;2023-01-28T04:43:55;92975.91;;;0.71
76895;BMP280;65855;42.030;13.078;2023-01-28T04:46:20;92980.75;;;0.82
76895;BMP280;65855;42.030;13.078;2023-01-28T04:48:46;92982.53;;;0.86
76895;BMP280;65855;42.030;13.078;2023-01-28T04:51:11;92985.25;;;0.85
76895;BMP280;65855;42.030;13.078;2023-01-28T04:53:36;92986.47;;;0.61
76895;BMP280;65855;42.030;13.078;2023-01-28T04:56:02;92993.41;;;0.59
76895;BMP280;65855;42.030;13.078;2023-01-28T04:58:27;92987.44;;;0.81
76895;BMP280;65855;42.030;13.078;2023-01-28T05:00:57;93002.25;;;0.97
76895;BMP280;65855;42.030;13.078;2023-01-28T05:03:23;93005.97;;;0.74
76895;BMP280;65855;42.030;13.078;2023-01-28T05:05:49;93001.00;;;0.74
76895;BMP280;65855;42.030;13.078;2023-01-28T05:08:15;93010.00;;;0.80
76895;BMP280;65855;42.030;13.078;2023-01-28T05:10:41;93007.09;;;0.88
76895;BMP280;65855;42.030;13.078;2023-01-28T05:13:06;93006.97;;;0.99
76895;BMP280;65855;42.030;13.078;2023-01-28T05:15:32;93012.63;;;0.95
76895;BMP280;65855;42.030;13.078;2023-01-28T05:17:57;93011.69;;;1.00
76895;BMP280;65855;42.030;13.078;2023-01-28T05:20:24;93013.56;;;0.89
76895;BMP280;65855;42.030;13.078;2023-01-28T05:22:50;93016.44;;;0.81
76895;BMP280;65855;42.030;13.078;2023-01-28T05:25:15;93026.75;;;0.94
76895;BMP280;65855;42.030;13.078;2023-01-28T05:27:41;93021.50;;;1.12
76895;BMP280;65855;42.030;13.078;2023-01-28T05:30:07;93028.09;;;1.27
76895;BMP280;65855;42.030;13.078;2023-01-28T05:32:32;93034.84;;;1.32
76895;BMP280;65855;42.030;13.078;2023-01-28T05:34:58;93029.56;;;1.28
76895;BMP280;65855;42.030;13.078;2023-01-28T05:37:23;93032.59;;;1.30
76895;BMP280;65855;42.030;13.078;2023-01-28T05:39:48;93025.16;;;1.30
76895;BMP280;65855;42.030;13.078;2023-01-28T05:42:14;93025.38;;;1.29
76895;BMP280;65855;42.030;13.078;2023-01-28T05:44:40;93038.75;;;1.28
76895;BMP280;65855;42.030;13.078;2023-01-28T05:47:05;93040.06;;;1.09
76895;BMP280;65855;42.030;13.078;2023-01-28T05:49:31;93042.78;;;1.08
76895;BMP280;65855;42.030;13.078;2023-01-28T05:51:56;93035.63;;;1.11
76895;BMP280;65855;42.030;13.078;2023-01-28T05:54:22;93048.88;;;1.21
76895;BMP280;65855;42.030;13.078;2023-01-28T05:56:47;93043.16;;;1.21
76895;BMP280;65855;42.030;13.078;2023-01-28T05:59:13;93049.63;;;1.22
76895;BMP280;65855;42.030;13.078;2023-01-28T06:01:38;93050.03;;;1.14
76895;BMP280;65855;42.030;13.078;2023-01-28T06:04:04;93050.53;;;1.11
76895;BMP280;65855;42.030;13.078;2023-01-28T06:06:30;93062.88;;;1.06
76895;BMP280;65855;42.030;13.078;2023-01-28T06:08:55;93065.88;;;1.08
76895;BMP280;65855;42.030;13.078;2023-01-28T06:11:20;93061.47;;;1.15
76895;BMP280;65855;42.030;13.078;2023-01-28T06:13:46;93067.94;;;1.16
76895;BMP280;65855;42.030;13.078;2023-01-28T06:16:11;93072.94;;;1.21
76895;BMP280;65855;42.030;13.078;2023-01-28T06:18:37;93079.69;;;1.25
76895;BMP280;65855;42.030;13.078;2023-01-28T06:21:02;93071.56;;;1.30
76895;BMP280;65855;42.030;13.078;2023-01-28T06:23:28;93069.41;;;1.38
76895;BMP280;65855;42.030;13.078;2023-01-28T06:25:55;93077.34;;;1.40
76895;BMP280;65855;42.030;13.078;2023-01-28T06:28:20;93073.56;;;1.59
76895;BMP280;65855;42.030;13.078;2023-01-28T06:30:50;93076.28;;;1.57
76895;BMP280;65855;42.030;13.078;2023-01-28T06:33:16;93072.56;;;1.60
76895;BMP280;65855;42.030;13.078;2023-01-28T06:35:41;93082.66;;;1.74
76895;BMP280;65855;42.030;13.078;2023-01-28T06:38:07;93077.91;;;1.73
76895;BMP280;65855;42.030;13.078;2023-01-28T06:40:32;93083.59;;;1.68
76895;BMP280;65855;42.030;13.078;2023-01-28T06:42:58;93079.16;;;1.44
76895;BMP280;65855;42.030;13.078;2023-01-28T06:45:24;93085.28;;;1.37
76895;BMP280;65855;42.030;13.078;2023-01-28T06:47:49;93077.03;;;1.32
76895;BMP280;65855;42.030;13.078;2023-01-28T06:50:15;93085.53;;;1.36
76895;BMP280;65855;42.030;13.078;2023-01-28T06:52:40;93083.25;;;1.34
76895;BMP280;65855;42.030;13.078;2023-01-28T06:55:06;93077.63;;;1.18
76895;BMP280;65855;42.030;13.078;2023-01-28T06:57:32;93097.75;;;1.21
76895;BMP280;65855;42.030;13.078;2023-01-28T06:59:57;93093.94;;;1.35
76895;BMP280;65855;42.030;13.078;2023-01-28T07:02:23;93096.28;;;1.46
76895;BMP280;65855;42.030;13.078;2023-01-28T07:04:48;93097.09;;;1.51
76895;BMP280;65855;42.030;13.078;2023-01-28T07:07:14;93100.31;;;1.52
76895;BMP280;65855;42.030;13.078;2023-01-28T07:09:39;93107.25;;;1.50
76895;BMP280;65855;42.030;13.078;2023-01-28T07:12:05;93107.56;;;1.58
76895;BMP280;65855;42.030;13.078;2023-01-28T07:14:31;93111.91;;;1.67
76895;BMP280;65855;42.030;13.078;2023-01-28T07:16:56;93111.47;;;1.75
76895;BMP280;65855;42.030;13.078;2023-01-28T07:19:22;93113.25;;;1.54
76895;BMP280;65855;42.030;13.078;2023-01-28T07:21:47;93120.00;;;1.58
76895;BMP280;65855;42.030;13.078;2023-01-28T07:24:12;93119.00;;;1.59
76895;BMP280;65855;42.030;13.078;2023-01-28T07:26:38;93121.72;;;1.58
76895;BMP280;65855;42.030;13.078;2023-01-28T07:29:03;93118.75;;;1.61
76895;BMP280;65855;42.030;13.078;2023-01-28T07:31:29;93119.63;;;1.71
76895;BMP280;65855;42.030;13.078;2023-01-28T07:33:54;93123.53;;;2.19
76895;BMP280;65855;42.030;13.078;2023-01-28T07:36:20;93117.09;;;3.19
76895;BMP280;65855;42.030;13.078;2023-01-28T07:38:45;93121.91;;;3.45
76895;BMP280;65855;42.030;13.078;2023-01-28T07:41:11;93118.78;;;4.08
76895;BMP280;65855;42.030;13.078;2023-01-28T07:43:36;93121.66;;;3.36
76895;BMP280;65855;42.030;13.078;2023-01-28T07:46:01;93136.19;;;2.99
76895;BMP280;65855;42.030;13.078;2023-01-28T07:48:27;93130.41;;;2.84
76895;BMP280;65855;42.030;13.078;2023-01-28T07:50:57;93136.44;;;2.97
76895;BMP280;65855;42.030;13.078;2023-01-28T07:53:22;93141.53;;;3.22
76895;BMP280;65855;42.030;13.078;2023-01-28T07:55:48;93141.41;;;3.02
76895;BMP280;65855;42.030;13.078;2023-01-28T07:58:13;93140.56;;;3.37
76895;BMP280;65855;42.030;13.078;2023-01-28T08:00:39;93143.38;;;3.65
76895;BMP280;65855;42.030;13.078;2023-01-28T08:03:06;93139.16;;;3.66
76895;BMP280;65855;42.030;13.078;2023-01-28T08:08:09;93138.75;;;4.32
76895;BMP280;65855;42.030;13.078;2023-01-28T08:10:36;93139.19;;;4.74
76895;BMP280;65855;42.030;13.078;2023-01-28T08:13:01;93144.66;;;5.62
76895;BMP280;65855;42.030;13.078;2023-01-28T08:15:28;93149.28;;;6.31
76895;BMP280;65855;42.030;13.078;2023-01-28T08:17:54;93142.75;;;6.63
76895;BMP280;65855;42.030;13.078;2023-01-28T08:20:20;93137.59;;;6.17
76895;BMP280;65855;42.030;13.078;2023-01-28T08:22:46;93146.56;;;6.83
76895;BMP280;65855;42.030;13.078;2023-01-28T08:25:12;93144.28;;;5.93
76895;BMP280;65855;42.030;13.078;2023-01-28T08:27:37;93154.13;;;5.03
76895;BMP280;65855;42.030;13.078;2023-01-28T08:30:03;93150.84;;;5.07
76895;BMP280;65855;42.030;13.078;2023-01-28T08:32:29;93167.50;;;5.36
76895;BMP280;65855;42.030;13.078;2023-01-28T08:34:55;93165.91;;;5.70
76895;BMP280;65855;42.030;13.078;2023-01-28T08:37:20;93168.16;;;5.61
76895;BMP280;65855;42.030;13.078;2023-01-28T08:39:46;93173.50;;;5.40
76895;BMP280;65855;42.030;13.078;2023-01-28T08:42:11;93167.38;;;4.94
76895;BMP280;65855;42.030;13.078;2023-01-28T08:44:36;93163.34;;;5.07
76895;BMP280;65855;42.030;13.078;2023-01-28T08:47:02;93172.53;;;5.26
76895;BMP280;65855;42.030;13.078;2023-01-28T08:49:27;93175.13;;;5.74
76895;BMP280;65855;42.030;13.078;2023-01-28T08:51:53;93173.59;;;6.25
76895;BMP280;65855;42.030;13.078;2023-01-28T08:54:19;93167.97;;;6.00
76895;BMP280;65855;42.030;13.078;2023-01-28T08:56:46;93170.75;;;5.99
76895;BMP280;65855;42.030;13.078;2023-01-28T08:59:13;93169.19;;;6.08
76895;BMP280;65855;42.030;13.078;2023-01-28T09:01:38;93166.50;;;5.99
76895;BMP280;65855;42.030;13.078;2023-01-28T09:04:04;93176.59;;;6.55
76895;BMP280;65855;42.030;13.078;2023-01-28T09:06:30;93179.84;;;7.40
76895;BMP280;65855;42.030;13.078;2023-01-28T09:08:56;93174.78;;;7.86
76895;BMP280;65855;42.030;13.078;2023-01-28T09:11:22;93171.28;;;8.23
76895;BMP280;65855;42.030;13.078;2023-01-28T09:13:47;93171.28;;;8.23
76895;BMP280;65855;42.030;13.078;2023-01-28T09:16:12;93176.56;;;8.03
76895;BMP280;65855;42.030;13.078;2023-01-28T09:18:38;93166.69;;;8.12
76895;BMP280;65855;42.030;13.078;2023-01-28T09:21:05;93171.22;;;8.28
76895;BMP280;65855;42.030;13.078;2023-01-28T09:23:34;93173.84;;;8.99
76895;BMP280;65855;42.030;13.078;2023-01-28T09:26:00;93171.03;;;9.71
76895;BMP280;65855;42.030;13.078;2023-01-28T09:28:26;93167.75;;;10.54
76895;BMP280;65855;42.030;13.078;2023-01-28T09:30:51;93162.13;;;10.35
76895;BMP280;65855;42.030;13.078;2023-01-28T09:33:16;93160.34;;;10.14
76895;BMP280;65855;42.030;13.078;2023-01-28T09:35:42;93162.22;;;9.82
76895;BMP280;65855;42.030;13.078;2023-01-28T09:38:07;93163.66;;;9.35
76895;BMP280;65855;42.030;13.078;2023-01-28T09:40:40;93159.66;;;9.21
76895;BMP280;65855;42.030;13.078;2023-01-28T09:45:51;93163.88;;;8.31
76895;BMP280;65855;42.030;13.078;2023-01-28T09:48:21;93169.34;;;9.14
76895;BMP280;65855;42.030;13.078;2023-01-28T09:50:49;93161.56;;;10.16
76895;BMP280;65855;42.030;13.078;2023-01-28T09:53:28;93163.19;;;9.86
76895;BMP280;65855;42.030;13.078;2023-01-28T09:56:05;93165.88;;;11.10
76895;BMP280;65855;42.030;13.078;2023-01-28T09:58:32;93166.09;;;12.15
76895;BMP280;65855;42.030;13.078;2023-01-28T10:01:25;93167.88;;;12.98
76895;BMP280;65855;42.030;13.078;2023-01-28T10:09:26;93164.44;;;15.25
76895;BMP280;65855;42.030;13.078;2023-01-28T10:17:26;93142.41;;;15.17
76895;BMP280;65855;42.030;13.078;2023-01-28T10:19:58;93139.81;;;15.37
76895;BMP280;65855;42.030;13.078;2023-01-28T10:22:29;93138.06;;;15.06
76895;BMP280;65855;42.030;13.078;2023-01-28T10:24:59;93130.16;;;16.52
76895;BMP280;65855;42.030;13.078;2023-01-28T10:27:30;93133.22;;;16.57
76895;BMP280;65855;42.030;13.078;2023-01-28T10:30:17;93124.25;;;16.21
76895;BMP280;65855;42.030;13.078;2023-01-28T10:32:51;93137.38;;;15.40
76895;BMP280;65855;42.030;13.078;2023-01-28T10:35:17;93131.34;;;15.01
76895;BMP280;65855;42.030;13.078;2023-01-28T10:37:42;93132.94;;;12.08
76895;BMP280;65855;42.030;13.078;2023-01-28T10:40:15;93137.63;;;10.27
76895;BMP280;65855;42.030;13.078;2023-01-28T10:42:41;93143.03;;;9.07
76895;BMP280;65855;42.030;13.078;2023-01-28T10:47:48;93141.47;;;8.66
76895;BMP280;65855;42.030;13.078;2023-01-28T10:50:20;93139.31;;;8.91
76895;BMP280;65855;42.030;13.078;2023-01-28T10:55:35;93137.13;;;8.40
76895;BMP280;65855;42.030;13.078;2023-01-28T10:58:23;93140.38;;;8.40
76895;BMP280;65855;42.030;13.078;2023-01-28T11:00:59;93145.53;;;7.76
76895;BMP280;65855;42.030;13.078;2023-01-28T11:03:25;93139.72;;;8.66
76895;BMP280;65855;42.030;13.078;2023-01-28T11:05:56;93137.47;;;9.62
76895;BMP280;65855;42.030;13.078;2023-01-28T11:08:23;93134.13;;;9.01
76895;BMP280;65855;42.030;13.078;2023-01-28T11:10:50;93132.75;;;8.14
76895;BMP280;65855;42.030;13.078;2023-01-28T11:13:25;93129.47;;;8.32
76895;BMP280;65855;42.030;13.078;2023-01-28T11:15:56;93122.84;;;8.54
76895;BMP280;65855;42.030;13.078;2023-01-28T11:18:29;93122.56;;;8.24
76895;BMP280;65855;42.030;13.078;2023-01-28T11:21:00;93124.59;;;7.86
76895;BMP280;65855;42.030;13.078;2023-01-28T11:23:39;93123.22;;;7.75
76895;BMP280;65855;42.030;13.078;2023-01-28T11:26:32;93125.44;;;7.76
76895;BMP280;65855;42.030;13.078;2023-01-28T11:28:59;93127.16;;;7.63
76895;BMP280;65855;42.030;13.078;2023-01-28T11:31:25;93133.84;;;7.49
76895;BMP280;65855;42.030;13.078;2023-01-28T11:33:57;93136.94;;;7.41
76895;BMP280;65855;42.030;13.078;2023-01-28T11:36:28;93140.34;;;7.50
76895;BMP280;65855;42.030;13.078;2023-01-28T11:38:56;93139.94;;;7.43
76895;BMP280;65855;42.030;13.078;2023-01-28T11:41:28;93138.94;;;7.39
76895;BMP280;65855;42.030;13.078;2023-01-28T11:43:54;93132.25;;;7.12
76895;BMP280;65855;42.030;13.078;2023-01-28T11:49:02;93143.00;;;6.89
76895;BMP280;65855;42.030;13.078;2023-01-28T12:02:34;93140.63;;;6.74
76895;BMP280;65855;42.030;13.078;2023-01-28T12:10:42;93128.88;;;7.44
76895;BMP280;65855;42.030;13.078;2023-01-28T12:16:22;93126.13;;;8.05
76895;BMP280;65855;42.030;13.078;2023-01-28T12:35:30;93112.84;;;9.86
76895;BMP280;65855;42.030;13.078;2023-01-28T12:38:25;93120.13;;;9.74
76895;BMP280;65855;42.030;13.078;2023-01-28T12:43:42;93114.91;;;9.84
76895;BMP280;65855;42.030;13.078;2023-01-28T12:46:36;93113.31;;;9.88
76895;BMP280;65855;42.030;13.078;2023-01-28T12:54:29;93104.56;;;11.86
76895;BMP280;65855;42.030;13.078;2023-01-28T12:56:58;93093.56;;;13.19
76895;BMP280;65855;42.030;13.078;2023-01-28T12:59:29;93094.09;;;12.79
76895;BMP280;65855;42.030;13.078;2023-01-28T13:07:14;93111.31;;;11.52
76895;BMP280;65855;42.030;13.078;2023-01-28T13:09:48;93105.59;;;11.94
76895;BMP280;65855;42.030;13.078;2023-01-28T13:12:18;93105.44;;;12.15
76895;BMP280;65855;42.030;13.078;2023-01-28T13:14:44;93112.44;;;11.85
76895;BMP280;65855;42.030;13.078;2023-01-28T13:17:22;93113.88;;;11.61
76895;BMP280;65855;42.030;13.078;2023-01-28T13:19:48;93123.13;;;11.35
76895;BMP280;65855;42.030;13.078;2023-01-28T13:22:31;93127.25;;;10.93
76895;BMP280;65855;42.030;13.078;2023-01-28T13:25:24;93129.16;;;10.66
76895;BMP280;65855;42.030;13.078;2023-01-28T13:28:03;93127.44;;;10.54
76895;BMP280;65855;42.030;13.078;2023-01-28T13:30:34;93126.53;;;10.50
76895;BMP280;65855;42.030;13.078;2023-01-28T13:36:33;93137.88;;;10.82
76895;BMP280;65855;42.030;13.078;2023-01-28T13:39:04;93143.78;;;10.86
76895;BMP280;65855;42.030;13.078;2023-01-28T13:41:44;93144.50;;;11.00
76895;BMP280;65855;42.030;13.078;2023-01-28T13:44:31;93138.44;;;9.27
76895;BMP280;65855;42.030;13.078;2023-01-28T13:47:31;93149.63;;;8.09
76895;BMP280;65855;42.030;13.078;2023-01-28T13:50:01;93146.84;;;7.51
76895;BMP280;65855;42.030;13.078;2023-01-28T13:52:46;93150.16;;;7.23
76895;BMP280;65855;42.030;13.078;2023-01-28T13:55:19;93154.97;;;7.43
76895;BMP280;65855;42.030;13.078;2023-01-28T14:16:50;93175.47;;;6.05
76895;BMP280;65855;42.030;13.078;2023-01-28T14:19:21;93176.72;;;6.03
76895;BMP280;65855;42.030;13.078;2023-01-28T14:21:50;93185.31;;;5.87
76895;BMP280;65855;42.030;13.078;2023-01-28T14:24:17;93185.88;;;5.79
76895;BMP280;65855;42.030;13.078;2023-01-28T14:32:03;93193.03;;;5.96
76895;BMP280;65855;42.030;13.078;2023-01-28T14:34:31;93205.81;;;5.89
76895;BMP280;65855;42.030;13.078;2023-01-28T14:37:07;93208.09;;;5.81
76895;BMP280;65855;42.030;13.078;2023-01-28T14:42:25;93208.38;;;5.79
76895;BMP280;65855;42.030;13.078;2023-01-28T14:48:20;93217.03;;;5.97
76895;BMP280;65855;42.030;13.078;2023-01-28T14:51:11;93221.84;;;5.83
76895;BMP280;65855;42.030;13.078;2023-01-28T14:54:08;93225.34;;;5.82
76895;BMP280;65855;42.030;13.078;2023-01-28T14:59:55;93220.94;;;5.60
76895;BMP280;65855;42.030;13.078;2023-01-28T15:02:28;93224.88;;;5.66
76895;BMP280;65855;42.030;13.078;2023-01-28T15:04:54;93234.44;;;5.54
76895;BMP280;65855;42.030;13.078;2023-01-28T15:07:30;93234.19;;;5.50
76895;BMP280;65855;42.030;13.078;2023-01-28T15:10:13;93235.41;;;5.53
76895;BMP280;65855;42.030;13.078;2023-01-28T15:12:43;93239.19;;;5.46
76895;BMP280;65855;42.030;13.078;2023-01-28T15:15:20;93230.72;;;5.37
76895;BMP280;65855;42.030;13.078;2023-01-28T15:17:48;93238.97;;;5.37
76895;BMP280;65855;42.030;13.078;2023-01-28T15:20:20;93241.25;;;5.29
76895;BMP280;65855;42.030;13.078;2023-01-28T15:22:46;93241.25;;;5.34
76895;BMP280;65855;42.030;13.078;2023-01-28T15:25:21;93242.47;;;5.36
76895;BMP280;65855;42.030;13.078;2023-01-28T15:27:48;93241.47;;;5.32
76895;BMP280;65855;42.030;13.078;2023-01-28T15:30:23;93245.25;;;5.30
76895;BMP280;65855;42.030;13.078;2023-01-28T15:33:04;93248.00;;;5.14
76895;BMP280;65855;42.030;13.078;2023-01-28T15:35:30;93251.00;;;5.21
76895;BMP280;65855;42.030;13.078;2023-01-28T15:37:57;93255.53;;;5.04
76895;BMP280;65855;42.030;13.078;2023-01-28T15:40:23;93258.53;;;4.96
76895;BMP280;65855;42.030;13.078;2023-01-28T15:42:52;93254.53;;;4.85
76895;BMP280;65855;42.030;13.078;2023-01-28T15:45:20;93266.53;;;4.78
76895;BMP280;65855;42.030;13.078;2023-01-28T15:47:47;93259.28;;;4.67
76895;BMP280;65855;42.030;13.078;2023-01-28T15:50:22;93258.25;;;4.68
76895;BMP280;65855;42.030;13.078;2023-01-28T15:52:48;93262.78;;;4.66
76895;BMP280;65855;42.030;13.078;2023-01-28T15:55:30;93267.00;;;4.66
76895;BMP280;65855;42.030;13.078;2023-01-28T15:58:15;93263.25;;;4.49
76895;BMP280;65855;42.030;13.078;2023-01-28T16:00:42;93268.50;;;4.47
76895;BMP280;65855;42.030;13.078;2023-01-28T16:03:08;93271.97;;;4.46
76895;BMP280;65855;42.030;13.078;2023-01-28T16:05:37;93274.00;;;4.44
76895;BMP280;65855;42.030;13.078;2023-01-28T16:08:08;93279.97;;;4.38
76895;BMP280;65855;42.030;13.078;2023-01-28T16:10:34;93276.94;;;4.36
76895;BMP280;65855;42.030;13.078;2023-01-28T16:13:05;93283.94;;;4.39
76895;BMP280;65855;42.030;13.078;2023-01-28T16:15:36;93286.44;;;4.34
76895;BMP280;65855;42.030;13.078;2023-01-28T16:18:04;93290.88;;;4.23
76895;BMP280;65855;42.030;13.078;2023-01-28T16:20:31;93289.16;;;4.18
76895;BMP280;65855;42.030;13.078;2023-01-28T16:22:59;93301.06;;;4.11
76895;BMP280;65855;42.030;13.078;2023-01-28T16:25:33;93305.31;;;4.06
76895;BMP280;65855;42.030;13.078;2023-01-28T16:28:00;93313.75;;;3.95
76895;BMP280;65855;42.030;13.078;2023-01-28T16:30:27;93304.97;;;3.83